createdAt,value
2022-12-18T00:01:36.612Z,45.13
2022-12-18T00:04:09.024Z,47.07
2022-12-18T00:06:36.673Z,39.57
2022-12-18T00:09:04.284Z,42.90
2022-12-18T00:11:32.029Z,49.00
2022-12-18T00:14:00.322Z,49.00
2022-12-18T00:16:28.563Z,45.60
2022-12-18T00:18:57.435Z,43.50
2022-12-18T00:21:24.366Z,43.50
2022-12-18T00:23:52.258Z,42.10
2022-12-18T00:26:27.834Z,41.13
2022-12-18T00:28:56.641Z,40.97
2022-12-18T00:31:25.570Z,41.00
2022-12-18T00:33:56.139Z,42.80
2022-12-18T00:36:26.248Z,45.17
2022-12-18T00:38:55.172Z,46.13
2022-12-18T00:41:41.667Z,47.57
2022-12-18T00:44:10.512Z,41.03
2022-12-18T00:46:37.351Z,38.87
2022-12-18T00:49:05.082Z,43.23
2022-12-18T00:51:31.877Z,39.93
2022-12-18T00:53:58.799Z,43.90
2022-12-18T00:56:25.997Z,40.53
2022-12-18T00:58:53.325Z,40.57
2022-12-18T01:01:20.965Z,38.97
2022-12-18T01:03:47.857Z,37.53
2022-12-18T01:06:16.108Z,45.53
2022-12-18T01:08:43.327Z,41.77
2022-12-18T01:11:12.841Z,43.37
2022-12-18T01:13:41.063Z,45.90
2022-12-18T01:16:09.885Z,45.13
2022-12-18T01:18:36.983Z,42.63
2022-12-18T01:21:08.614Z,41.03
2022-12-18T01:23:36.142Z,40.97
2022-12-18T01:26:11.959Z,37.80
2022-12-18T01:28:40.933Z,41.03
2022-12-18T01:31:20.141Z,37.60
2022-12-18T01:33:47.139Z,42.90
2022-12-18T01:36:28.245Z,41.13
2022-12-18T01:38:56.349Z,42.03
2022-12-18T01:41:25.955Z,40.97
2022-12-18T01:43:58.449Z,39.77
2022-12-18T01:46:26.364Z,42.57
2022-12-18T01:49:02.124Z,45.27
2022-12-18T01:51:31.805Z,40.60
2022-12-18T01:54:00.313Z,39.23
2022-12-18T01:56:27.406Z,42.27
2022-12-18T01:59:00.624Z,37.17
2022-12-18T02:01:28.345Z,40.83
2022-12-18T02:03:55.542Z,38.80
2022-12-18T02:06:40.826Z,45.50
2022-12-18T02:09:32.856Z,58.67
2022-12-18T02:12:17.472Z,53.40
2022-12-18T02:15:01.352Z,50.83
2022-12-18T02:17:57.717Z,45.03
2022-12-18T02:20:34.363Z,43.20
2022-12-18T02:23:02.192Z,45.27
2022-12-18T02:25:56.933Z,41.83
2022-12-18T02:28:26.968Z,40.27
2022-12-18T02:30:57.435Z,43.00
2022-12-18T02:33:26.578Z,37.60
2022-12-18T02:35:56.501Z,47.97
2022-12-18T02:38:24.811Z,44.20
2022-12-18T02:40:54.076Z,37.97
2022-12-18T02:43:21.009Z,39.40
2022-12-18T02:45:51.651Z,41.90
2022-12-18T02:48:24.941Z,30.27
2022-12-18T02:51:12.020Z,32.43
2022-12-18T02:53:46.990Z,28.53
2022-12-18T02:56:37.613Z,35.53
2022-12-18T02:59:14.856Z,30.77
2022-12-18T03:01:59.981Z,29.33
2022-12-18T03:04:35.023Z,30.00
2022-12-18T03:07:06.189Z,33.50
2022-12-18T03:09:41.897Z,28.53
2022-12-18T03:12:33.431Z,31.80
2022-12-18T03:15:15.981Z,38.50
2022-12-18T03:17:49.988Z,36.20
2022-12-18T03:20:21.587Z,33.97
2022-12-18T03:22:52.269Z,37.53
2022-12-18T03:25:20.652Z,27.83
2022-12-18T03:27:52.188Z,29.30
2022-12-18T03:30:20.030Z,31.37
2022-12-18T03:33:20.681Z,31.70
2022-12-18T03:35:47.677Z,30.10
2022-12-18T03:38:15.080Z,30.03
2022-12-18T03:41:09.357Z,33.20
2022-12-18T03:44:00.556Z,32.13
2022-12-18T03:46:46.376Z,29.13
2022-12-18T03:49:20.736Z,27.43
2022-12-18T03:52:02.411Z,28.47
2022-12-18T03:54:30.224Z,28.83
2022-12-18T03:57:04.730Z,30.73
2022-12-18T03:59:32.990Z,29.70
2022-12-18T04:02:02.307Z,29.17
2022-12-18T04:04:31.239Z,32.47
2022-12-18T04:06:59.227Z,26.80
2022-12-18T04:09:27.262Z,26.20
2022-12-18T04:11:54.187Z,28.83
2022-12-18T04:14:21.224Z,29.50
2022-12-18T04:16:48.200Z,29.07
2022-12-18T04:19:15.134Z,25.33
2022-12-18T04:21:41.971Z,28.43
2022-12-18T04:24:09.375Z,28.37
2022-12-18T04:26:36.104Z,27.27
2022-12-18T04:29:02.987Z,32.43
2022-12-18T04:31:29.804Z,24.73
2022-12-18T04:33:56.561Z,29.23
2022-12-18T04:36:23.287Z,31.00
2022-12-18T04:38:50.222Z,30.13
2022-12-18T04:41:17.080Z,28.17
2022-12-18T04:43:43.801Z,30.47
2022-12-18T04:46:10.775Z,27.10
2022-12-18T04:48:38.219Z,28.90
2022-12-18T04:51:06.139Z,26.50
2022-12-18T04:53:33.816Z,28.97
2022-12-18T04:56:09.817Z,31.50
2022-12-18T04:58:37.616Z,31.93
2022-12-18T05:01:05.053Z,24.83
2022-12-18T05:03:31.967Z,26.60
2022-12-18T05:05:58.758Z,29.67
2022-12-18T05:08:25.795Z,29.03
2022-12-18T05:11:04.923Z,27.00
2022-12-18T05:13:33.429Z,27.57
2022-12-18T05:16:00.456Z,25.73
2022-12-18T05:18:28.077Z,28.93
2022-12-18T05:20:55.900Z,25.63
2022-12-18T05:23:24.509Z,32.77
2022-12-18T05:26:00.578Z,25.97
2022-12-18T05:28:30.444Z,28.53
2022-12-18T05:30:59.711Z,25.83
2022-12-18T05:33:29.738Z,28.60
2022-12-18T05:35:59.115Z,26.60
2022-12-18T05:38:27.779Z,24.73
2022-12-18T05:40:55.066Z,28.17
2022-12-18T05:43:23.386Z,25.97
2022-12-18T05:45:51.159Z,26.07
2022-12-18T05:48:18.602Z,25.37
2022-12-18T05:50:47.071Z,28.70
2022-12-18T05:53:15.971Z,24.53
2022-12-18T05:55:44.505Z,25.20
2022-12-18T05:58:13.216Z,26.13
2022-12-18T06:00:42.600Z,25.27
2022-12-18T06:03:11.038Z,26.87
2022-12-18T06:05:42.810Z,26.77
2022-12-18T06:08:10.052Z,27.00
2022-12-18T06:10:37.285Z,25.37
2022-12-18T06:13:04.771Z,27.97
2022-12-18T06:15:31.591Z,26.30
2022-12-18T06:17:58.496Z,25.03
2022-12-18T06:20:27.970Z,25.40
2022-12-18T06:22:59.507Z,28.70
2022-12-18T06:25:26.341Z,26.73
2022-12-18T06:27:53.188Z,26.60
2022-12-18T06:30:21.037Z,28.73
2022-12-18T06:32:53.165Z,27.50
2022-12-18T06:35:23.581Z,25.23
2022-12-18T06:37:50.450Z,26.30
2022-12-18T06:40:17.660Z,26.17
2022-12-18T06:42:44.548Z,23.87
2022-12-18T06:45:12.359Z,25.67
2022-12-18T06:47:39.140Z,30.57
2022-12-18T06:50:06.698Z,28.70
2022-12-18T06:52:34.591Z,24.73
2022-12-18T06:55:01.500Z,26.53
2022-12-18T06:57:28.496Z,26.83
2022-12-18T06:59:55.523Z,25.27
2022-12-18T07:02:22.361Z,24.40
2022-12-18T07:04:49.252Z,27.60
2022-12-18T07:07:16.244Z,25.80
2022-12-18T07:09:43.264Z,25.40
2022-12-18T07:12:10.835Z,25.90
2022-12-18T07:14:37.598Z,26.27
2022-12-18T07:17:04.618Z,24.60
2022-12-18T07:19:32.632Z,26.20
2022-12-18T07:21:59.399Z,27.80
2022-12-18T07:24:26.123Z,27.20
2022-12-18T07:26:53.003Z,26.70
2022-12-18T07:29:19.774Z,26.07
2022-12-18T07:31:46.996Z,24.40
2022-12-18T07:34:16.339Z,24.63
2022-12-18T07:36:43.428Z,26.00
2022-12-18T07:39:12.372Z,24.47
2022-12-18T07:41:43.817Z,24.47
2022-12-18T07:44:14.058Z,29.27
2022-12-18T07:46:41.297Z,26.23
2022-12-18T07:49:08.178Z,26.00
2022-12-18T07:51:34.956Z,24.10
2022-12-18T07:54:02.059Z,28.30
2022-12-18T07:56:30.820Z,29.33
2022-12-18T07:59:01.147Z,28.07
2022-12-18T08:01:28.736Z,26.27
2022-12-18T08:03:56.196Z,25.23
2022-12-18T08:06:24.230Z,27.03
2022-12-18T08:08:56.403Z,31.43
2022-12-18T08:11:24.645Z,33.67
2022-12-18T08:13:51.901Z,28.83
2022-12-18T08:16:19.137Z,30.53
2022-12-18T08:18:46.758Z,29.83
2022-12-18T08:21:32.752Z,29.80
2022-12-18T08:24:02.062Z,33.47
2022-12-18T08:26:30.936Z,33.20
2022-12-18T08:28:59.815Z,34.60
2022-12-18T08:31:28.877Z,34.30
2022-12-18T08:33:56.167Z,27.53
2022-12-18T08:36:24.881Z,27.87
2022-12-18T08:38:52.509Z,27.03
2022-12-18T08:41:20.412Z,30.03
2022-12-18T08:44:06.368Z,24.73
2022-12-18T08:46:42.442Z,25.27
2022-12-18T08:49:10.964Z,26.27
2022-12-18T08:51:38.433Z,30.50
2022-12-18T08:54:06.815Z,40.50
2022-12-18T08:56:34.294Z,30.50
2022-12-18T08:59:01.338Z,25.63
2022-12-18T09:01:28.625Z,27.50
2022-12-18T09:03:55.645Z,27.67
2022-12-18T09:06:23.766Z,26.47
2022-12-18T09:08:50.876Z,24.40
2022-12-18T09:11:23.830Z,26.23
2022-12-18T09:13:51.332Z,26.60
2022-12-18T09:16:18.762Z,19.37
2022-12-18T09:18:46.001Z,23.30
2022-12-18T09:21:20.845Z,22.37
2022-12-18T09:23:51.951Z,25.47
2022-12-18T09:26:18.859Z,21.57
2022-12-18T09:28:45.891Z,24.00
2022-12-18T09:31:14.116Z,23.27
2022-12-18T09:33:41.126Z,22.60
2022-12-18T09:36:10.597Z,22.87
2022-12-18T09:38:37.827Z,17.90
2022-12-18T09:41:42.796Z,19.80
2022-12-18T09:44:25.119Z,19.40
2022-12-18T09:47:04.875Z,19.03
2022-12-18T09:49:35.490Z,19.97
2022-12-18T09:52:10.306Z,18.20
2022-12-18T09:54:41.275Z,21.80
2022-12-18T09:57:16.564Z,21.37
2022-12-18T09:59:47.337Z,20.87
2022-12-18T10:02:23.834Z,19.07
2022-12-18T10:05:07.858Z,22.40
2022-12-18T10:07:55.748Z,15.80
2022-12-18T10:10:48.608Z,19.50
2022-12-18T10:13:33.342Z,18.70
2022-12-18T10:16:22.314Z,18.93
2022-12-18T10:19:12.556Z,19.93
2022-12-18T10:22:01.106Z,19.67
2022-12-18T10:24:53.593Z,20.03
2022-12-18T10:27:25.472Z,18.13
2022-12-18T10:29:52.556Z,18.87
2022-12-18T10:32:22.234Z,18.33
2022-12-18T10:34:58.188Z,21.37
2022-12-18T10:37:29.496Z,21.80
2022-12-18T10:40:21.466Z,19.07
2022-12-18T10:43:13.164Z,15.63
2022-12-18T10:45:40.449Z,16.37
2022-12-18T10:48:20.361Z,16.43
2022-12-18T10:53:38.508Z,13.77
2022-12-18T10:56:07.438Z,13.37
2022-12-18T10:58:36.982Z,11.20
2022-12-18T11:01:11.182Z,15.10
2022-12-18T11:03:52.491Z,10.60
2022-12-18T11:06:25.403Z,13.53
2022-12-18T11:09:22.194Z,10.37
2022-12-18T11:11:57.738Z,13.27
2022-12-18T11:14:34.695Z,11.57
2022-12-18T11:17:24.856Z,12.17
2022-12-18T11:19:55.520Z,9.33
2022-12-18T11:22:28.972Z,11.30
2022-12-18T11:25:34.607Z,10.47
2022-12-18T11:28:23.664Z,8.93
2022-12-18T11:30:50.744Z,9.00
2022-12-18T11:33:22.652Z,10.10
2022-12-18T11:36:03.777Z,9.27
2022-12-18T11:38:41.097Z,10.37
2022-12-18T11:41:08.084Z,8.77
2022-12-18T11:43:59.140Z,8.73
2022-12-18T11:46:48.871Z,8.87
2022-12-18T11:49:21.055Z,9.90
2022-12-18T11:51:54.066Z,10.63
2022-12-18T11:54:20.984Z,12.40
2022-12-18T11:57:05.056Z,8.50
2022-12-18T11:59:53.571Z,9.53
2022-12-18T12:03:02.342Z,11.40
2022-12-18T12:05:55.681Z,11.73
2022-12-18T12:08:35.375Z,8.67
2022-12-18T12:11:18.218Z,11.67
2022-12-18T12:14:10.918Z,10.33
2022-12-18T12:17:07.624Z,10.60
2022-12-18T12:19:58.488Z,12.53
2022-12-18T12:22:40.929Z,14.20
2022-12-18T12:25:36.211Z,8.67
2022-12-18T12:28:30.208Z,8.93
2022-12-18T12:31:09.098Z,11.13
2022-12-18T12:34:03.483Z,9.13
2022-12-18T12:36:55.419Z,12.97
2022-12-18T12:39:28.252Z,10.00
2022-12-18T12:42:14.507Z,9.47
2022-12-18T12:44:51.297Z,8.97
2022-12-18T12:47:37.356Z,9.73
2022-12-18T12:50:13.264Z,11.83
2022-12-18T12:53:02.543Z,10.23
2022-12-18T12:55:31.327Z,8.53
2022-12-18T12:58:24.161Z,8.60
2022-12-18T13:01:09.860Z,9.20
2022-12-18T13:03:54.673Z,7.37
2022-12-18T13:06:43.001Z,9.40
2022-12-18T13:09:11.821Z,7.80
2022-12-18T13:12:01.666Z,8.83
2022-12-18T13:14:35.919Z,8.13
2022-12-18T13:17:21.273Z,9.73
2022-12-18T13:19:53.561Z,8.60
2022-12-18T13:22:26.015Z,8.77
2022-12-18T13:24:52.849Z,7.37
2022-12-18T13:27:45.372Z,8.00
2022-12-18T13:30:32.885Z,8.37
2022-12-18T13:33:14.965Z,7.07
2022-12-18T13:35:46.905Z,7.60
2022-12-18T13:38:39.103Z,7.07
2022-12-18T13:41:28.036Z,6.40
2022-12-18T13:44:23.321Z,7.33
2022-12-18T13:46:51.619Z,8.37
2022-12-18T13:49:38.732Z,6.80
2022-12-18T13:52:21.985Z,8.20
2022-12-18T13:54:53.538Z,9.27
2022-12-18T13:57:31.976Z,9.93
2022-12-18T13:59:59.929Z,12.20
2022-12-18T14:02:28.852Z,8.73
2022-12-18T14:04:56.558Z,8.53
2022-12-18T14:07:26.388Z,7.13
2022-12-18T14:10:12.611Z,7.93
2022-12-18T14:13:02.215Z,9.97
2022-12-18T14:15:45.374Z,7.70
2022-12-18T14:18:23.214Z,8.10
2022-12-18T14:21:00.798Z,6.63
2022-12-18T14:23:35.834Z,7.07
2022-12-18T14:26:06.382Z,5.57
2022-12-18T14:28:33.292Z,7.33
2022-12-18T14:31:00.619Z,9.57
2022-12-18T14:33:29.745Z,8.17
2022-12-18T14:36:05.391Z,7.53
2022-12-18T14:38:32.516Z,7.67
2022-12-18T14:41:02.472Z,10.63
2022-12-18T14:43:38.304Z,8.40
2022-12-18T14:46:26.315Z,7.60
2022-12-18T14:48:54.087Z,7.20
2022-12-18T14:51:27.011Z,9.10
2022-12-18T14:54:01.480Z,6.67
2022-12-18T14:56:31.402Z,8.17
2022-12-18T14:59:02.967Z,10.00
2022-12-18T15:01:32.399Z,14.67
2022-12-18T15:04:00.458Z,12.83
2022-12-18T15:06:34.276Z,10.40
2022-12-18T15:09:04.200Z,11.00
2022-12-18T15:11:45.135Z,10.80
2022-12-18T15:14:33.018Z,13.23
2022-12-18T15:17:02.061Z,8.80
2022-12-18T15:19:43.829Z,9.57
2022-12-18T15:22:28.274Z,7.13
2022-12-18T15:24:57.912Z,9.50
2022-12-18T15:27:35.805Z,8.90
2022-12-18T15:30:10.262Z,9.70
2022-12-18T15:32:42.747Z,8.53
2022-12-18T15:35:12.548Z,7.47
2022-12-18T15:37:39.387Z,8.17
2022-12-18T15:40:08.869Z,10.77
2022-12-18T15:42:54.286Z,8.77
2022-12-18T15:45:21.066Z,9.47
2022-12-18T15:47:50.690Z,8.57
2022-12-18T15:50:17.577Z,8.13
2022-12-18T15:52:47.214Z,6.77
2022-12-18T15:55:39.713Z,8.23
2022-12-18T15:58:08.334Z,8.40
2022-12-18T16:00:37.193Z,7.97
2022-12-18T16:03:05.317Z,6.70
2022-12-18T16:05:33.146Z,7.03
2022-12-18T16:08:00.044Z,6.90
2022-12-18T16:10:27.899Z,7.97
2022-12-18T16:12:55.005Z,9.83
2022-12-18T16:15:24.717Z,6.63
2022-12-18T16:17:52.903Z,7.93
2022-12-18T16:20:22.876Z,9.37
2022-12-18T16:22:50.403Z,8.77
2022-12-18T16:25:19.353Z,8.50
2022-12-18T16:27:46.300Z,7.47
2022-12-18T16:30:21.533Z,7.77
2022-12-18T16:32:48.900Z,7.07
2022-12-18T16:35:17.532Z,10.53
2022-12-18T16:37:45.049Z,10.50
2022-12-18T16:40:15.496Z,17.20
2022-12-18T16:42:44.456Z,16.10
2022-12-18T16:45:14.849Z,12.13
2022-12-18T16:47:41.804Z,8.73
2022-12-18T16:50:09.922Z,14.10
2022-12-18T16:52:37.038Z,11.40
2022-12-18T16:55:04.394Z,11.80
2022-12-18T16:57:31.207Z,8.83
2022-12-18T17:00:04.384Z,10.50
2022-12-18T17:02:31.886Z,10.73
2022-12-18T17:04:59.633Z,9.07
2022-12-18T17:07:28.260Z,12.17
2022-12-18T17:09:55.665Z,10.23
2022-12-18T17:12:23.209Z,8.27
2022-12-18T17:14:50.590Z,9.17
2022-12-18T17:17:22.233Z,11.80
2022-12-18T17:19:50.168Z,10.20
2022-12-18T17:22:17.005Z,9.43
2022-12-18T17:24:43.936Z,12.53
2022-12-18T17:27:10.809Z,10.97
2022-12-18T17:29:42.493Z,10.40
2022-12-18T17:32:13.795Z,10.47
2022-12-18T17:34:40.856Z,11.50
2022-12-18T17:37:08.071Z,11.13
2022-12-18T17:39:35.111Z,10.67
2022-12-18T17:42:02.060Z,11.93
2022-12-18T17:44:29.315Z,9.83
2022-12-18T17:46:56.555Z,10.83
2022-12-18T17:49:23.584Z,9.90
2022-12-18T17:51:51.559Z,11.33
2022-12-18T17:54:19.154Z,10.93
2022-12-18T17:56:46.302Z,11.47
2022-12-18T17:59:13.350Z,11.03
2022-12-18T18:01:44.423Z,14.47
2022-12-18T18:04:12.258Z,12.97
2022-12-18T18:06:39.605Z,13.13
2022-12-18T18:09:09.957Z,20.07
2022-12-18T18:12:05.815Z,12.97
2022-12-18T18:14:33.549Z,22.60
2022-12-18T18:17:04.515Z,13.20
2022-12-18T18:19:32.399Z,12.23
2022-12-18T18:21:59.369Z,12.33
2022-12-18T18:24:26.370Z,12.83
2022-12-18T18:26:56.605Z,15.13
2022-12-18T18:29:26.908Z,12.70
2022-12-18T18:31:55.155Z,13.40
2022-12-18T18:34:24.712Z,14.73
2022-12-18T18:36:52.007Z,14.13
2022-12-18T18:39:19.694Z,15.63
2022-12-18T18:41:47.790Z,13.00
2022-12-18T18:44:16.573Z,12.93
2022-12-18T18:46:44.207Z,12.30
2022-12-18T18:49:12.040Z,14.83
2022-12-18T18:51:39.024Z,15.37
2022-12-18T18:54:06.424Z,15.30
2022-12-18T18:59:30.162Z,17.37
2022-12-18T19:02:00.047Z,17.20
2022-12-18T19:04:32.177Z,18.43
2022-12-18T19:06:59.119Z,17.93
2022-12-18T19:09:27.414Z,19.10
2022-12-18T19:12:14.537Z,19.93
2022-12-18T19:14:41.647Z,23.27
2022-12-18T19:17:09.290Z,19.17
2022-12-18T19:19:37.012Z,19.87
2022-12-18T19:22:07.841Z,18.50
2022-12-18T19:24:35.921Z,20.73
2022-12-18T19:27:02.774Z,21.77
2022-12-18T19:29:29.560Z,19.63
2022-12-18T19:31:56.655Z,22.50
2022-12-18T19:34:23.492Z,21.47
2022-12-18T19:36:53.972Z,21.90
2022-12-18T19:39:26.287Z,21.03
2022-12-18T19:41:53.281Z,18.97
2022-12-18T19:44:21.152Z,25.47
2022-12-18T19:46:52.123Z,20.90
2022-12-18T19:49:19.048Z,18.80
2022-12-18T19:51:46.269Z,23.67
2022-12-18T19:54:16.929Z,21.20
2022-12-18T19:56:46.070Z,25.50
2022-12-18T19:59:13.370Z,22.73
2022-12-18T20:01:40.790Z,21.43
2022-12-18T20:04:08.148Z,22.80
2022-12-18T20:06:50.710Z,23.80
2022-12-18T20:09:18.442Z,21.70
2022-12-18T20:11:47.050Z,24.93
2022-12-18T20:14:18.851Z,23.80
2022-12-18T20:16:52.479Z,23.13
2022-12-18T20:19:20.833Z,25.33
2022-12-18T20:21:48.407Z,23.27
2022-12-18T20:24:15.346Z,23.57
2022-12-18T20:26:42.499Z,22.23
2022-12-18T20:29:09.359Z,23.77
2022-12-18T20:31:36.533Z,21.57
2022-12-18T20:34:04.971Z,23.90
2022-12-18T20:36:34.221Z,25.23
2022-12-18T20:39:03.988Z,25.17
2022-12-18T20:41:38.029Z,26.00
2022-12-18T20:44:23.414Z,24.90
2022-12-18T20:46:57.921Z,26.60
2022-12-18T20:49:27.027Z,27.20
2022-12-18T20:51:56.444Z,22.43
2022-12-18T20:54:26.766Z,25.47
2022-12-18T20:56:54.327Z,25.73
2022-12-18T20:59:23.291Z,23.17
2022-12-18T21:01:52.506Z,24.83
2022-12-18T21:04:19.925Z,26.83
2022-12-18T21:06:52.891Z,21.67
2022-12-18T21:09:23.053Z,25.23
2022-12-18T21:12:08.637Z,24.77
2022-12-18T21:14:38.142Z,25.23
2022-12-18T21:17:05.287Z,22.40
2022-12-18T21:19:34.798Z,23.37
2022-12-18T21:22:02.256Z,24.83
2022-12-18T21:24:32.661Z,24.53
2022-12-18T21:27:00.458Z,27.13
2022-12-18T21:29:27.761Z,26.77
2022-12-18T21:31:55.921Z,26.00
2022-12-18T21:34:26.593Z,24.70
2022-12-18T21:36:54.725Z,28.67
2022-12-18T21:39:23.020Z,28.30
2022-12-18T21:42:09.873Z,23.67
2022-12-18T21:44:41.931Z,25.07
2022-12-18T21:47:17.692Z,26.37
2022-12-18T21:49:51.462Z,25.10
2022-12-18T21:52:18.430Z,22.63
2022-12-18T21:54:45.337Z,25.20
2022-12-18T21:57:15.452Z,25.33
2022-12-18T21:59:43.661Z,27.17
2022-12-18T22:02:20.349Z,25.60
2022-12-18T22:04:48.246Z,26.30
2022-12-18T22:07:18.681Z,27.47
2022-12-18T22:09:45.650Z,23.80
2022-12-18T22:12:34.157Z,21.40
2022-12-18T22:15:01.564Z,27.77
2022-12-18T22:17:28.649Z,25.00
2022-12-18T22:19:57.083Z,23.93
2022-12-18T22:22:26.673Z,24.03
2022-12-18T22:24:53.899Z,25.93
2022-12-18T22:27:20.664Z,28.07
2022-12-18T22:30:05.948Z,22.23
2022-12-18T22:32:41.922Z,26.63
2022-12-18T22:35:15.429Z,24.10
2022-12-18T22:37:43.192Z,25.53
2022-12-18T22:40:23.716Z,25.27
2022-12-18T22:42:51.330Z,26.30
2022-12-18T22:45:24.990Z,25.00
2022-12-18T22:47:55.882Z,23.83
2022-12-18T22:50:23.576Z,23.37
2022-12-18T22:52:53.922Z,24.97
2022-12-18T22:55:20.753Z,23.93
2022-12-18T22:57:49.055Z,24.37
2022-12-18T23:00:20.137Z,24.70
2022-12-18T23:02:57.551Z,24.00
2022-12-18T23:05:27.223Z,22.13
2022-12-18T23:07:53.983Z,22.40
2022-12-18T23:10:20.951Z,23.97
2022-12-18T23:12:48.075Z,22.17
2022-12-18T23:15:15.578Z,27.30
2022-12-18T23:17:44.969Z,24.60
2022-12-18T23:20:12.079Z,24.27
2022-12-18T23:22:39.045Z,24.20
2022-12-18T23:25:07.026Z,24.37
2022-12-18T23:27:34.231Z,22.70
2022-12-18T23:30:01.018Z,23.40
2022-12-18T23:32:27.775Z,25.03
2022-12-18T23:34:54.744Z,25.83
2022-12-18T23:37:49.757Z,24.97
2022-12-18T23:40:09.184Z,25.23
2022-12-18T23:42:36.354Z,25.67
2022-12-18T23:45:03.912Z,27.53
2022-12-18T23:47:36.411Z,24.30
2022-12-18T23:50:07.850Z,25.83
2022-12-18T23:52:35.157Z,26.23
2022-12-18T23:55:02.051Z,24.67
2022-12-18T23:57:29.027Z,26.60
2022-12-18T23:59:55.853Z,23.80
